Terminal Aerodrome Forecast
Issued by NWS

Home | Current Version | Previous Version | Text Only | Print | Product List | Glossary On
Versions: 1 2 3 4 5 6 7 8 9 10 11 12 13
000
FTUS44 KOUN 030019 AAA
TAFLAW
TAF AMD
KLAW 030019Z 0300/0324 08011KT P6SM -RA OVC025
     FM030400 05010KT 6SM -RA OVC015
     FM031600 05010KT 4SM -RA OVC007=

USA.gov is the U.S. government's official web portal to all federal, state and local government web resources and services.